createdAt,value
2022-11-09T00:01:13.609Z,16.94
2022-11-09T00:11:15.002Z,16.93
2022-11-09T00:21:18.481Z,16.94
2022-11-09T00:31:20.839Z,16.95
2022-11-09T00:41:22.479Z,16.98
2022-11-09T00:51:23.988Z,16.97
2022-11-09T01:01:25.568Z,16.96
2022-11-09T01:11:27.035Z,16.99
2022-11-09T01:21:28.549Z,16.96
2022-11-09T01:31:29.946Z,16.97
2022-11-09T01:41:31.331Z,16.99
2022-11-09T01:51:43.704Z,16.96
2022-11-09T02:01:45.257Z,17.00
2022-11-09T02:11:46.684Z,16.99
2022-11-09T02:21:48.046Z,16.96
2022-11-09T02:31:52.400Z,17.00
2022-11-09T02:41:56.448Z,16.98
2022-11-09T02:51:57.827Z,16.95
2022-11-09T03:01:59.227Z,16.95
2022-11-09T03:12:20.643Z,16.94
2022-11-09T03:22:22.087Z,16.94
2022-11-09T03:32:23.537Z,16.95
2022-11-09T03:42:24.915Z,16.96
2022-11-09T03:52:26.295Z,16.96
2022-11-09T04:02:27.813Z,16.97
2022-11-09T04:12:29.189Z,16.97
2022-11-09T04:22:30.655Z,16.97
2022-11-09T04:32:32.035Z,16.99
2022-11-09T04:42:33.570Z,16.92
2022-11-09T04:52:35.059Z,16.91
2022-11-09T05:02:36.510Z,16.92
2022-11-09T05:12:41.176Z,16.95
2022-11-09T05:23:03.531Z,16.95
2022-11-09T05:33:04.973Z,16.92
2022-11-09T05:43:06.364Z,16.94
2022-11-09T05:53:07.951Z,16.92
2022-11-09T06:03:10.296Z,16.92
2022-11-09T06:13:11.698Z,16.95
2022-11-09T06:23:13.066Z,16.95
2022-11-09T06:33:14.564Z,16.94
2022-11-09T06:43:15.969Z,16.94
2022-11-09T06:53:17.807Z,16.91
2022-11-09T07:03:20.518Z,16.94
2022-11-09T07:13:22.333Z,16.96
2022-11-09T07:23:24.125Z,16.99
2022-11-09T07:33:26.580Z,16.99
2022-11-09T07:43:28.995Z,16.97
2022-11-09T07:53:30.369Z,17.05
2022-11-09T08:03:31.747Z,17.07
2022-11-09T08:13:33.129Z,17.12
2022-11-09T08:23:34.528Z,17.19
2022-11-09T08:33:40.066Z,17.22
2022-11-09T08:43:41.648Z,17.43
2022-11-09T08:53:43.226Z,17.61
2022-11-09T09:03:44.629Z,17.85
2022-11-09T09:13:46.055Z,18.24
2022-11-09T09:23:49.216Z,18.43
2022-11-09T09:33:50.610Z,18.39
2022-11-09T09:43:54.324Z,18.29
2022-11-09T09:53:59.149Z,18.33
2022-11-09T10:04:00.561Z,18.39
2022-11-09T10:14:07.943Z,18.39
2022-11-09T10:24:20.026Z,18.41
2022-11-09T10:34:23.537Z,18.43
2022-11-09T10:44:24.910Z,18.42
2022-11-09T10:54:31.058Z,18.39
2022-11-09T11:04:32.432Z,18.38
2022-11-09T11:14:35.170Z,18.36
2022-11-09T11:24:59.329Z,18.39
2022-11-09T11:35:01.779Z,18.38
2022-11-09T11:45:39.700Z,18.40
2022-11-09T11:56:06.845Z,18.34
2022-11-09T12:06:29.819Z,18.27
2022-11-09T12:16:40.287Z,18.21
2022-11-09T12:27:30.420Z,18.18
2022-11-09T12:37:28.076Z,18.16
2022-11-09T12:47:37.394Z,18.15
2022-11-09T12:57:38.785Z,18.16
2022-11-09T13:07:50.676Z,18.20
2022-11-09T13:18:22.214Z,18.21
2022-11-09T13:28:32.728Z,18.11
2022-11-09T13:38:34.943Z,18.01
2022-11-09T13:48:40.593Z,18.02
2022-11-09T13:58:42.133Z,18.00
2022-11-09T14:08:43.778Z,17.97
2022-11-09T14:19:01.982Z,17.88
2022-11-09T14:29:23.034Z,17.80
2022-11-09T14:39:34.181Z,17.74
2022-11-09T14:49:35.583Z,17.70
2022-11-09T14:59:37.035Z,17.63
2022-11-09T15:09:48.043Z,17.60
2022-11-09T15:19:54.444Z,17.55
2022-11-09T15:29:55.846Z,17.52
2022-11-09T15:39:58.026Z,17.47
2022-11-09T15:50:00.500Z,17.41
2022-11-09T16:00:06.719Z,17.37
2022-11-09T16:10:15.899Z,17.32
2022-11-09T16:20:17.940Z,17.29
2022-11-09T16:30:19.544Z,17.23
2022-11-09T16:40:21.153Z,17.18
2022-11-09T16:50:23.497Z,17.18
2022-11-09T17:00:33.734Z,17.14
2022-11-09T17:10:46.604Z,17.11
2022-11-09T17:20:49.259Z,17.10
2022-11-09T17:30:50.799Z,17.07
2022-11-09T17:40:52.276Z,17.06
2022-11-09T17:50:53.753Z,17.07
2022-11-09T18:00:55.308Z,17.06
2022-11-09T18:10:58.454Z,17.05
2022-11-09T18:21:05.549Z,17.04
2022-11-09T18:31:09.081Z,17.04
2022-11-09T18:41:12.550Z,16.99
2022-11-09T18:51:13.938Z,16.97
2022-11-09T19:01:16.024Z,16.96
2022-11-09T19:11:17.441Z,16.95
2022-11-09T19:21:24.811Z,16.93
2022-11-09T19:31:26.276Z,16.95
2022-11-09T19:41:27.745Z,16.94
2022-11-09T19:51:30.866Z,16.97
2022-11-09T20:01:32.379Z,16.96
2022-11-09T20:11:52.559Z,16.95
2022-11-09T20:21:54.109Z,16.94
2022-11-09T20:31:55.489Z,16.91
2022-11-09T20:41:56.891Z,16.93
2022-11-09T20:51:58.882Z,16.92
2022-11-09T21:02:00.523Z,16.93
2022-11-09T21:12:20.575Z,16.95
2022-11-09T21:22:21.981Z,16.95
2022-11-09T21:32:23.400Z,16.95
2022-11-09T21:42:24.766Z,16.93
2022-11-09T21:52:26.149Z,16.93
2022-11-09T22:02:27.700Z,16.94
2022-11-09T22:12:47.876Z,16.90
2022-11-09T22:22:49.285Z,16.90
2022-11-09T22:32:50.768Z,16.90
2022-11-09T22:42:56.122Z,16.88
2022-11-09T22:53:03.301Z,16.88
2022-11-09T23:03:05.255Z,16.86
2022-11-09T23:13:06.644Z,16.85
2022-11-09T23:23:08.061Z,16.85
2022-11-09T23:33:09.540Z,16.84
2022-11-09T23:43:11.546Z,16.86
2022-11-09T23:53:13.007Z,16.86
